createdAt,value
2018-07-11T00:02:18.528Z,8.08
2018-07-11T00:04:46.553Z,8.00
2018-07-11T00:07:14.579Z,8.23
2018-07-11T00:09:42.613Z,8.23
2018-07-11T00:12:10.652Z,8.15
2018-07-11T00:14:38.679Z,8.20
2018-07-11T00:17:10.964Z,8.00
2018-07-11T00:19:39.060Z,8.00
2018-07-11T00:22:07.081Z,8.90
2018-07-11T00:24:35.083Z,8.70
2018-07-11T00:27:03.132Z,8.38
2018-07-11T00:29:31.165Z,8.90
2018-07-11T00:31:59.205Z,9.27
2018-07-11T00:34:27.217Z,8.98
2018-07-11T00:36:55.265Z,9.90
2018-07-11T00:39:23.092Z,9.43
2018-07-11T00:41:51.131Z,9.60
2018-07-11T00:44:19.176Z,9.43
2018-07-11T00:46:47.200Z,10.68
2018-07-11T00:49:15.216Z,9.58
2018-07-11T00:51:43.249Z,10.40
2018-07-11T00:54:11.332Z,10.30
2018-07-11T00:56:40.276Z,10.43
2018-07-11T00:59:14.337Z,10.40
2018-07-11T01:01:42.368Z,11.00
2018-07-11T01:04:10.424Z,10.88
2018-07-11T01:06:38.447Z,10.45
2018-07-11T01:09:06.479Z,10.38
2018-07-11T01:11:36.008Z,10.85
2018-07-11T01:14:04.017Z,11.10
2018-07-11T01:16:32.708Z,11.30
2018-07-11T01:19:02.065Z,11.53
2018-07-11T01:21:30.844Z,11.80
2018-07-11T01:23:58.885Z,11.87
2018-07-11T01:26:28.417Z,11.83
2018-07-11T01:28:56.454Z,11.73
2018-07-11T01:31:25.592Z,11.30
2018-07-11T01:33:54.065Z,12.40
2018-07-11T01:36:22.116Z,11.95
2018-07-11T01:38:50.147Z,12.23
2018-07-11T01:41:18.180Z,12.75
2018-07-11T01:43:46.544Z,13.75
2018-07-11T01:46:14.929Z,12.90
2018-07-11T01:48:43.196Z,12.98
2018-07-11T01:51:11.240Z,13.18
2018-07-11T01:53:39.273Z,12.07
2018-07-11T01:56:07.136Z,12.65
2018-07-11T01:58:34.989Z,12.35
2018-07-11T02:01:03.515Z,13.70
2018-07-11T02:03:31.591Z,14.00
2018-07-11T02:05:59.611Z,13.53
2018-07-11T02:08:27.670Z,14.45
2018-07-11T02:10:56.479Z,13.32
2018-07-11T02:13:24.771Z,14.10
2018-07-11T02:15:52.867Z,14.90
2018-07-11T02:18:22.721Z,13.93
2018-07-11T02:20:51.717Z,14.50
2018-07-11T02:23:19.781Z,13.50
2018-07-11T02:25:47.980Z,15.20
2018-07-11T02:28:16.023Z,14.90
2018-07-11T02:30:44.134Z,15.35
2018-07-11T02:33:12.159Z,15.98
2018-07-11T02:35:40.200Z,17.17
2018-07-11T02:38:08.245Z,16.67
2018-07-11T02:40:36.281Z,16.42
2018-07-11T02:43:04.316Z,16.23
2018-07-11T02:45:32.340Z,16.52
2018-07-11T02:48:00.180Z,17.23
2018-07-11T02:50:28.216Z,16.93
2018-07-11T02:52:56.269Z,18.20
2018-07-11T02:55:24.288Z,17.27
2018-07-11T02:57:52.340Z,17.12
2018-07-11T03:00:20.376Z,17.77
2018-07-11T03:02:48.424Z,17.83
2018-07-11T03:05:16.452Z,18.67
2018-07-11T03:07:44.516Z,18.50
2018-07-11T03:10:12.549Z,18.80
2018-07-11T03:12:40.589Z,19.92
2018-07-11T03:15:08.608Z,20.57
2018-07-11T03:17:36.656Z,20.52
2018-07-11T03:20:04.694Z,21.30
2018-07-11T03:22:32.765Z,21.30
2018-07-11T03:25:00.809Z,23.35
2018-07-11T03:27:28.861Z,22.07
2018-07-11T03:29:56.885Z,24.50
2018-07-11T03:32:24.913Z,25.02
2018-07-11T03:34:52.947Z,24.40
2018-07-11T03:37:20.985Z,26.30
2018-07-11T03:39:49.004Z,26.40
2018-07-11T03:42:17.038Z,26.57
2018-07-11T03:44:45.085Z,27.22
2018-07-11T03:47:13.131Z,27.95
2018-07-11T03:49:41.183Z,29.27
2018-07-11T03:52:09.229Z,29.00
2018-07-11T03:54:37.293Z,30.17
2018-07-11T03:57:05.329Z,28.90
2018-07-11T03:59:33.355Z,30.12
2018-07-11T04:02:01.388Z,31.07
2018-07-11T04:04:29.440Z,32.60
2018-07-11T04:06:57.481Z,33.50
2018-07-11T04:09:25.510Z,34.58
2018-07-11T04:11:54.064Z,33.83
2018-07-11T04:14:22.108Z,34.95
2018-07-11T04:16:50.136Z,34.25
2018-07-11T04:19:18.192Z,34.00
2018-07-11T04:21:46.228Z,35.08
2018-07-11T04:24:14.267Z,32.60
2018-07-11T04:26:42.301Z,25.02
2018-07-11T04:29:10.380Z,22.70
2018-07-11T04:31:38.425Z,23.50
2018-07-11T04:34:06.688Z,22.73
2018-07-11T04:36:34.732Z,24.98
2018-07-11T04:39:03.404Z,24.77
2018-07-11T04:41:31.452Z,27.30
2018-07-11T04:43:59.296Z,27.22
2018-07-11T04:46:27.528Z,31.25
2018-07-11T04:48:55.565Z,30.52
2018-07-11T04:51:23.406Z,34.40
2018-07-11T04:53:51.608Z,35.58
2018-07-11T04:56:19.658Z,38.60
2018-07-11T04:58:47.767Z,37.93
2018-07-11T05:01:15.765Z,37.73
2018-07-11T05:03:43.788Z,37.05
2018-07-11T05:06:11.824Z,38.40
2018-07-11T05:08:39.849Z,39.98
2018-07-11T05:11:07.908Z,40.73
2018-07-11T05:13:35.936Z,41.20
2018-07-11T05:16:03.960Z,44.08
2018-07-11T05:18:31.984Z,41.53
2018-07-11T05:21:00.038Z,40.88
2018-07-11T05:23:28.095Z,42.35
2018-07-11T05:25:56.131Z,41.33
2018-07-11T05:28:24.179Z,40.10
2018-07-11T05:30:52.297Z,39.83
2018-07-11T05:33:20.348Z,39.90
2018-07-11T05:35:48.392Z,41.58
2018-07-11T05:38:16.429Z,40.30
2018-07-11T05:40:44.464Z,40.25
2018-07-11T05:43:12.566Z,39.30
2018-07-11T05:45:40.592Z,38.80
2018-07-11T05:48:08.641Z,36.88
2018-07-11T05:50:36.677Z,37.30
2018-07-11T05:53:04.745Z,36.53
2018-07-11T05:55:32.845Z,35.30
2018-07-11T05:58:00.872Z,35.15
2018-07-11T06:00:28.908Z,35.23
2018-07-11T06:02:56.940Z,33.70
2018-07-11T06:05:25.014Z,34.48
2018-07-11T06:07:53.052Z,32.20
2018-07-11T06:10:21.145Z,32.42
2018-07-11T06:12:49.173Z,34.60
2018-07-11T06:15:17.208Z,33.38
2018-07-11T06:17:45.278Z,34.33
2018-07-11T06:20:13.374Z,34.78
2018-07-11T06:22:41.379Z,33.60
2018-07-11T06:25:09.396Z,32.88
2018-07-11T06:27:37.443Z,32.58
2018-07-11T06:30:05.544Z,30.02
2018-07-11T06:32:33.565Z,30.30
2018-07-11T06:35:01.667Z,30.55
2018-07-11T06:37:29.688Z,30.20
2018-07-11T06:39:57.736Z,27.42
2018-07-11T06:42:25.837Z,28.42
2018-07-11T06:44:53.876Z,27.17
2018-07-11T06:47:21.916Z,29.23
2018-07-11T06:49:49.952Z,29.15
2018-07-11T06:52:18.007Z,29.18
2018-07-11T06:54:46.072Z,28.07
2018-07-11T06:57:14.105Z,27.90
2018-07-11T06:59:42.194Z,26.87
2018-07-11T07:02:10.228Z,28.27
2018-07-11T07:04:38.305Z,26.65
2018-07-11T07:07:06.344Z,27.25
2018-07-11T07:09:34.405Z,26.33
2018-07-11T07:12:02.450Z,28.12
2018-07-11T07:14:30.309Z,24.92
2018-07-11T07:16:58.144Z,25.20
2018-07-11T07:19:26.169Z,25.05
2018-07-11T07:21:54.328Z,23.83
2018-07-11T07:24:22.361Z,23.60
2018-07-11T07:26:50.444Z,22.83
2018-07-11T07:29:18.480Z,23.07
2018-07-11T07:31:46.533Z,24.25
2018-07-11T07:34:14.560Z,22.75
2018-07-11T07:36:42.454Z,22.05
2018-07-11T07:39:10.957Z,21.80
2018-07-11T07:41:39.016Z,21.00
2018-07-11T07:44:08.295Z,20.30
2018-07-11T07:46:36.316Z,19.32
2018-07-11T07:49:04.629Z,16.80
2018-07-11T07:51:32.476Z,15.20
2018-07-11T07:54:00.513Z,13.20
2018-07-11T07:56:28.583Z,12.98
2018-07-11T07:58:56.611Z,13.62
2018-07-11T08:01:24.668Z,13.85
2018-07-11T08:03:52.715Z,13.35
2018-07-11T08:06:20.757Z,13.37
2018-07-11T08:08:48.783Z,12.63
2018-07-11T08:11:16.800Z,12.53
2018-07-11T08:13:44.849Z,12.00
2018-07-11T08:16:12.880Z,12.35
2018-07-11T08:18:40.907Z,12.10
2018-07-11T08:21:08.990Z,10.70
2018-07-11T08:23:48.524Z,10.98
2018-07-11T08:27:25.926Z,10.98
2018-07-11T08:30:03.661Z,10.25
2018-07-11T08:32:41.129Z,10.35
2018-07-11T08:35:41.664Z,10.35
2018-07-11T08:39:21.120Z,10.40
2018-07-11T08:42:03.310Z,9.10
2018-07-11T08:44:42.272Z,9.30
2018-07-11T08:47:20.697Z,10.20
2018-07-11T08:50:04.412Z,9.50
2018-07-11T08:52:40.532Z,9.73
2018-07-11T08:55:18.125Z,10.23
2018-07-11T08:59:33.726Z,9.30
2018-07-11T09:02:11.782Z,8.33
2018-07-11T09:04:54.173Z,8.45
2018-07-11T09:07:27.760Z,8.20
2018-07-11T09:12:04.200Z,8.90
2018-07-11T09:14:47.036Z,8.40
2018-07-11T09:17:40.579Z,9.47
2018-07-11T09:22:19.448Z,8.08
2018-07-11T09:24:48.629Z,8.85
2018-07-11T09:27:16.652Z,9.00
2018-07-11T09:29:45.381Z,9.78
2018-07-11T09:32:13.961Z,8.90
2018-07-11T09:34:42.552Z,8.15
2018-07-11T09:37:10.641Z,7.87
2018-07-11T09:39:38.900Z,8.10
2018-07-11T09:42:07.025Z,7.80
2018-07-11T09:44:35.179Z,7.70
2018-07-11T09:47:08.489Z,8.15
2018-07-11T09:49:36.537Z,9.30
2018-07-11T09:52:04.576Z,9.53
2018-07-11T09:54:33.064Z,8.90
2018-07-11T09:57:01.181Z,9.23
2018-07-11T09:59:29.262Z,9.10
2018-07-11T10:01:57.261Z,9.63
2018-07-11T10:04:25.483Z,10.77
2018-07-11T10:06:53.518Z,11.00
2018-07-11T10:09:21.592Z,10.80
2018-07-11T10:11:49.658Z,12.03
2018-07-11T10:14:17.728Z,12.40
2018-07-11T10:16:45.765Z,11.55
2018-07-11T10:19:13.780Z,11.50
2018-07-11T10:21:41.853Z,11.85
2018-07-11T10:24:09.862Z,12.88
2018-07-11T10:26:37.903Z,11.20
2018-07-11T10:29:05.940Z,5.40
2018-07-11T10:31:33.976Z,5.55
2018-07-11T10:34:01.998Z,6.60
2018-07-11T10:36:30.029Z,6.35
2018-07-11T10:38:58.085Z,5.80
2018-07-11T10:41:26.091Z,6.35
2018-07-11T10:43:54.109Z,5.20
2018-07-11T10:46:22.122Z,5.30
2018-07-11T10:48:50.131Z,5.00
2018-07-11T10:51:18.157Z,5.67
2018-07-11T10:53:46.183Z,5.00
2018-07-11T10:56:14.021Z,5.20
2018-07-11T10:58:42.072Z,4.03
2018-07-11T11:01:10.222Z,3.60
2018-07-11T11:03:38.239Z,4.30
2018-07-11T11:06:06.284Z,4.72
2018-07-11T11:08:34.315Z,3.92
2018-07-11T11:11:02.347Z,4.20
2018-07-11T11:13:30.378Z,5.10
2018-07-11T11:15:58.409Z,4.47
2018-07-11T11:18:26.339Z,4.37
2018-07-11T11:20:55.608Z,4.60
2018-07-11T11:23:23.888Z,4.60
2018-07-11T11:25:51.996Z,5.00
2018-07-11T11:28:20.024Z,5.60
2018-07-11T11:30:48.134Z,5.37
2018-07-11T11:33:16.146Z,5.35
2018-07-11T11:35:44.191Z,5.50
2018-07-11T11:38:12.208Z,5.62
2018-07-11T11:40:40.278Z,6.20
2018-07-11T11:43:08.309Z,6.80
2018-07-11T11:45:36.163Z,6.55
2018-07-11T11:48:04.413Z,6.72
2018-07-11T11:50:32.507Z,6.87
2018-07-11T11:53:01.370Z,7.80
2018-07-11T11:55:29.408Z,7.40
2018-07-11T11:57:57.444Z,8.63
2018-07-11T12:00:25.275Z,9.83
2018-07-11T12:02:53.344Z,9.00
2018-07-11T12:05:21.409Z,8.95
2018-07-11T12:07:49.480Z,8.75
2018-07-11T12:10:17.861Z,8.80
2018-07-11T12:12:45.937Z,8.40
2018-07-11T12:15:14.164Z,9.03
2018-07-11T12:17:42.220Z,9.60
2018-07-11T12:20:10.036Z,8.90
2018-07-11T12:22:38.069Z,9.55
2018-07-11T12:25:06.144Z,9.70
2018-07-11T12:27:34.189Z,10.45
2018-07-11T12:30:02.232Z,9.43
2018-07-11T12:32:30.288Z,9.10
2018-07-11T12:34:58.331Z,8.63
2018-07-11T12:37:26.390Z,8.58
2018-07-11T12:39:54.427Z,9.28
2018-07-11T12:42:22.496Z,8.40
2018-07-11T12:44:50.536Z,7.60
2018-07-11T12:47:23.822Z,8.33
2018-07-11T12:49:51.873Z,9.28
2018-07-11T12:52:19.941Z,8.15
2018-07-11T12:54:48.009Z,8.60
2018-07-11T12:57:16.032Z,7.60
2018-07-11T12:59:44.065Z,7.85
2018-07-11T13:02:12.423Z,6.62
2018-07-11T13:04:40.276Z,7.72
2018-07-11T13:07:08.136Z,7.37
2018-07-11T13:09:37.473Z,7.00
2018-07-11T13:12:06.108Z,7.67
2018-07-11T13:14:34.180Z,8.35
2018-07-11T13:17:02.224Z,7.20
2018-07-11T13:19:30.264Z,5.37
2018-07-11T13:21:58.311Z,8.53
2018-07-11T13:24:26.332Z,6.95
2018-07-11T13:26:54.347Z,7.60
2018-07-11T13:29:22.184Z,7.60
2018-07-11T13:31:50.200Z,8.00
2018-07-11T13:34:18.272Z,7.95
2018-07-11T13:36:46.388Z,7.33
2018-07-11T13:39:17.364Z,7.33
2018-07-11T13:41:45.931Z,11.35
2018-07-11T13:44:14.045Z,6.90
2018-07-11T13:46:42.178Z,7.20
2018-07-11T13:49:10.955Z,8.45
2018-07-11T13:51:38.988Z,7.72
2018-07-11T13:54:07.043Z,7.40
2018-07-11T13:56:35.456Z,7.50
2018-07-11T13:59:03.924Z,7.60
2018-07-11T14:01:31.993Z,7.53
2018-07-11T14:04:00.473Z,7.80
2018-07-11T14:06:28.480Z,8.90
2018-07-11T14:08:56.517Z,8.40
2018-07-11T14:11:24.700Z,9.20
2018-07-11T14:13:52.731Z,7.50
2018-07-11T14:16:21.048Z,8.45
2018-07-11T14:18:49.119Z,7.95
2018-07-11T14:21:17.144Z,8.70
2018-07-11T14:23:45.177Z,9.00
2018-07-11T14:26:14.542Z,9.20
2018-07-11T14:28:45.798Z,8.75
2018-07-11T14:31:15.025Z,10.03
2018-07-11T14:33:48.233Z,9.25
2018-07-11T14:36:16.511Z,10.08
2018-07-11T14:38:44.841Z,9.90
2018-07-11T14:41:12.872Z,9.85
2018-07-11T14:43:40.916Z,10.40
2018-07-11T14:46:08.948Z,10.45
2018-07-11T14:48:36.995Z,11.70
2018-07-11T14:51:05.032Z,11.00
2018-07-11T14:53:32.972Z,10.10
2018-07-11T14:56:01.001Z,9.30
2018-07-11T14:58:29.044Z,9.20
2018-07-11T15:00:57.080Z,9.30
2018-07-11T15:03:25.109Z,9.93
2018-07-11T15:05:53.156Z,9.68
2018-07-11T15:08:21.353Z,9.00
2018-07-11T15:10:49.276Z,8.55
2018-07-11T15:13:17.312Z,8.40
2018-07-11T15:15:45.353Z,8.40
2018-07-11T15:18:13.901Z,8.58
2018-07-11T15:20:41.924Z,8.80
2018-07-11T15:23:09.952Z,8.30
2018-07-11T15:25:37.976Z,8.80
2018-07-11T15:28:06.225Z,8.80
2018-07-11T15:30:34.232Z,9.13
2018-07-11T15:33:02.252Z,7.65
2018-07-11T15:35:30.284Z,8.20
2018-07-11T15:37:58.316Z,7.90
2018-07-11T15:40:26.373Z,9.10
2018-07-11T15:42:54.412Z,8.85
2018-07-11T15:45:22.307Z,8.73
2018-07-11T15:47:50.280Z,8.80
2018-07-11T15:50:18.304Z,8.90
2018-07-11T15:52:46.314Z,9.73
2018-07-11T15:55:14.384Z,9.60
2018-07-11T15:57:51.712Z,10.30
2018-07-11T16:00:29.592Z,9.90
2018-07-11T16:02:58.234Z,9.75
2018-07-11T16:05:28.624Z,10.30
2018-07-11T16:07:58.253Z,10.65
2018-07-11T16:10:29.486Z,10.10
2018-07-11T16:12:57.533Z,10.32
2018-07-11T16:15:25.572Z,9.80
2018-07-11T16:17:53.632Z,10.10
2018-07-11T16:20:21.693Z,10.00
2018-07-11T16:22:49.822Z,10.32
2018-07-11T16:25:17.871Z,9.88
2018-07-11T16:27:45.940Z,10.50
2018-07-11T16:30:13.991Z,10.03
2018-07-11T16:32:42.048Z,10.78
2018-07-11T16:35:09.892Z,9.98
2018-07-11T16:37:37.924Z,9.90
2018-07-11T16:40:05.968Z,9.80
2018-07-11T16:42:35.585Z,9.70
2018-07-11T16:45:03.613Z,9.40
2018-07-11T16:47:31.641Z,8.90
2018-07-11T16:49:59.678Z,9.00
2018-07-11T16:52:27.736Z,10.50
2018-07-11T16:54:55.798Z,10.05
2018-07-11T16:57:28.024Z,8.30
2018-07-11T17:00:04.063Z,7.53
2018-07-11T17:02:32.025Z,6.80
2018-07-11T17:05:03.188Z,8.20
2018-07-11T17:07:31.217Z,7.67
2018-07-11T17:10:01.388Z,6.80
2018-07-11T17:12:29.436Z,6.40
2018-07-11T17:14:58.461Z,5.95
2018-07-11T17:17:32.572Z,5.57
2018-07-11T17:20:08.844Z,5.47
2018-07-11T17:22:46.926Z,5.20
2018-07-11T17:25:14.964Z,5.83
2018-07-11T17:27:42.988Z,5.70
2018-07-11T17:30:11.016Z,6.80
2018-07-11T17:32:39.090Z,6.60
2018-07-11T17:35:07.117Z,5.80
2018-07-11T17:37:35.464Z,5.80
2018-07-11T17:40:09.616Z,5.60
2018-07-11T17:42:37.454Z,6.10
2018-07-11T17:45:08.113Z,6.40
2018-07-11T17:47:44.716Z,6.13
2018-07-11T17:50:12.737Z,6.85
2018-07-11T17:53:51.476Z,7.23
2018-07-11T17:56:20.952Z,7.58
2018-07-11T17:58:54.244Z,7.33
2018-07-11T18:01:42.516Z,7.60
2018-07-11T18:05:24.840Z,7.75
2018-07-11T18:07:53.164Z,8.40
2018-07-11T18:10:48.877Z,8.55
2018-07-11T18:13:54.496Z,9.75
2018-07-11T18:16:35.851Z,10.72
2018-07-11T18:19:10.116Z,10.08
2018-07-11T18:21:40.972Z,9.80
2018-07-11T18:24:36.354Z,9.53
2018-07-11T18:27:16.856Z,9.63
2018-07-11T18:29:53.844Z,9.70
2018-07-11T18:32:42.675Z,10.20
2018-07-11T18:35:32.989Z,10.60
2018-07-11T18:39:12.186Z,11.12
2018-07-11T18:41:58.063Z,11.28
2018-07-11T18:44:33.548Z,9.40
2018-07-11T18:49:19.965Z,10.20
2018-07-11T18:52:02.041Z,8.98
2018-07-11T18:55:42.488Z,8.68
2018-07-11T18:58:19.675Z,8.20
2018-07-11T19:00:57.384Z,7.90
2018-07-11T19:03:32.855Z,8.10
2018-07-11T19:06:17.477Z,7.47
2018-07-11T19:09:04.653Z,7.08
2018-07-11T19:11:43.816Z,7.40
2018-07-11T19:14:15.449Z,6.80
2018-07-11T19:16:46.840Z,7.10
2018-07-11T19:19:19.776Z,7.50
2018-07-11T19:21:53.696Z,7.33
2018-07-11T19:25:32.747Z,7.08
2018-07-11T19:28:12.189Z,7.50
2018-07-11T19:30:55.267Z,8.95
2018-07-11T19:33:28.671Z,17.70
2018-07-11T19:37:06.889Z,10.50
2018-07-11T19:39:36.602Z,11.12
2018-07-11T19:42:10.278Z,9.73
2018-07-11T19:44:57.951Z,8.38
2018-07-11T19:48:44.825Z,9.08
2018-07-11T19:51:52.487Z,11.45
2018-07-11T19:54:34.637Z,9.27
2018-07-11T19:57:02.689Z,9.30
2018-07-11T19:59:30.736Z,9.40
2018-07-11T20:01:58.804Z,9.85
2018-07-11T20:04:26.831Z,8.50
2018-07-11T20:06:54.667Z,9.30
2018-07-11T20:09:22.751Z,11.03
2018-07-11T20:11:52.097Z,9.33
2018-07-11T20:14:20.672Z,9.00
2018-07-11T20:16:48.913Z,9.95
2018-07-11T20:19:17.380Z,9.20
2018-07-11T20:21:45.429Z,9.73
2018-07-11T20:24:13.448Z,10.10
2018-07-11T20:26:41.486Z,11.73
2018-07-11T20:29:09.612Z,12.85
2018-07-11T20:31:37.746Z,11.03
2018-07-11T20:34:05.775Z,13.37
2018-07-11T20:36:33.795Z,10.60
2018-07-11T20:39:01.834Z,10.80
2018-07-11T20:41:29.886Z,13.32
2018-07-11T20:43:57.916Z,10.93
2018-07-11T20:46:26.476Z,10.43
2018-07-11T20:48:54.420Z,13.05
2018-07-11T20:51:22.435Z,11.50
2018-07-11T20:53:50.479Z,11.05
2018-07-11T20:56:18.549Z,11.70
2018-07-11T20:58:58.124Z,12.23
2018-07-11T21:01:37.788Z,12.55
2018-07-11T21:08:23.056Z,11.40
2018-07-11T21:10:56.458Z,16.10
2018-07-11T21:13:38.630Z,16.73
2018-07-11T21:16:15.162Z,14.83
2018-07-11T21:18:56.920Z,15.17
2018-07-11T21:21:24.751Z,15.25
2018-07-11T21:23:52.796Z,19.02
2018-07-11T21:26:21.085Z,20.07
2018-07-11T21:28:49.172Z,20.57
2018-07-11T21:31:17.224Z,22.60
2018-07-11T21:33:45.664Z,20.50
2018-07-11T21:36:13.702Z,19.48
2018-07-11T21:38:41.772Z,20.75
2018-07-11T21:41:09.848Z,20.10
2018-07-11T21:43:37.924Z,20.60
2018-07-11T21:46:05.924Z,21.42
2018-07-11T21:48:33.972Z,22.30
2018-07-11T21:51:01.798Z,22.25
2018-07-11T21:53:29.895Z,23.92
2018-07-11T21:55:58.135Z,22.35
2018-07-11T21:58:26.184Z,22.85
2018-07-11T22:00:55.753Z,23.90
2018-07-11T22:03:23.596Z,23.40
2018-07-11T22:05:51.640Z,24.60
2018-07-11T22:08:19.684Z,25.80
2018-07-11T22:10:47.729Z,22.50
2018-07-11T22:13:15.560Z,23.92
2018-07-11T22:15:43.609Z,22.70
2018-07-11T22:18:23.112Z,24.00
2018-07-11T22:20:50.265Z,23.30
2018-07-11T22:23:17.428Z,23.10
2018-07-11T22:25:44.544Z,25.57
2018-07-11T22:28:11.687Z,24.87
2018-07-11T22:30:38.828Z,24.60
2018-07-11T22:33:05.959Z,23.37
2018-07-11T22:35:33.100Z,21.80
2018-07-11T22:38:00.232Z,23.20
2018-07-11T22:40:27.373Z,22.60
2018-07-11T22:42:54.518Z,24.20
2018-07-11T22:45:21.667Z,22.58
2018-07-11T22:47:48.824Z,23.52
2018-07-11T22:50:15.953Z,23.90
2018-07-11T22:52:43.092Z,24.30
2018-07-11T22:55:10.234Z,25.75
2018-07-11T22:57:37.617Z,26.10
2018-07-11T23:00:04.758Z,26.60
2018-07-11T23:02:31.884Z,25.70
2018-07-11T23:04:59.279Z,25.92
2018-07-11T23:07:26.404Z,25.75
2018-07-11T23:09:53.535Z,25.60
2018-07-11T23:12:20.670Z,27.40
2018-07-11T23:14:47.809Z,27.10
2018-07-11T23:17:14.940Z,26.90
2018-07-11T23:19:42.092Z,26.10
2018-07-11T23:22:09.236Z,26.25
2018-07-11T23:24:36.381Z,26.63
2018-07-11T23:27:03.523Z,28.30
2018-07-11T23:29:30.661Z,28.73
2018-07-11T23:31:57.787Z,28.80
2018-07-11T23:34:24.920Z,29.90
2018-07-11T23:36:52.060Z,31.65
2018-07-11T23:39:19.193Z,32.15
2018-07-11T23:41:46.329Z,32.45
2018-07-11T23:44:13.478Z,33.30
2018-07-11T23:46:40.609Z,34.05
2018-07-11T23:49:07.744Z,32.88
2018-07-11T23:51:34.892Z,32.60
2018-07-11T23:54:02.031Z,31.12
2018-07-11T23:56:29.157Z,31.77
2018-07-11T23:58:56.293Z,30.80
